Time;durP1;ratioP1;P1;durP2;ratioP2;P2;SDS_P1;SDS_P2;PMS_P1;PMS_P2;Temp;Humidity;BMP_temperature;BMP_pressure;BME280_temperature;BME280_humidity;BME280_pressure;Samples;Min_cycle;Max_cycle;Signal;HPM_P1;HPM_P2
2020/12/22 00:01:17;;;;;;;2.03;1.20;;;;;;;11.70;100.00;98129.50;5087220;28;20205;-77
2020/12/22 00:03:44;;;;;;;1.63;1.13;;;;;;;11.68;100.00;98128.88;5075434;28;20230;-75
2020/12/22 00:06:12;;;;;;;1.67;1.30;;;;;;;11.54;100.00;98136.88;5082251;28;20207;-75
2020/12/22 00:08:39;;;;;;;1.80;1.30;;;;;;;11.72;100.00;98135.47;5091925;28;20852;-76
2020/12/22 00:11:06;;;;;;;1.33;1.10;;;;;;;11.63;100.00;98150.88;5095920;28;20663;-75
2020/12/22 00:13:33;;;;;;;3.43;1.10;;;;;;;11.70;100.00;98148.22;5091279;28;20225;-76
2020/12/22 00:16:00;;;;;;;1.80;1.07;;;;;;;11.72;100.00;98148.84;5076314;28;20202;-79
2020/12/22 00:18:27;;;;;;;3.03;1.17;;;;;;;11.69;100.00;98141.25;5084294;28;20195;-75
2020/12/22 00:20:54;;;;;;;0.90;0.80;;;;;;;11.64;100.00;98133.00;5089030;28;20208;-75
2020/12/22 00:23:20;;;;;;;1.77;1.17;;;;;;;11.78;100.00;98124.78;5087204;28;20702;-76
2020/12/22 00:25:48;;;;;;;1.30;1.00;;;;;;;11.71;100.00;98131.97;5078903;28;20231;-76
2020/12/22 00:28:15;;;;;;;1.17;1.00;;;;;;;11.62;100.00;98140.41;5095677;28;20288;-76
2020/12/22 00:30:44;;;;;;;1.33;1.03;;;;;;;11.70;100.00;98118.81;5076572;28;20202;-76
2020/12/22 00:33:11;;;;;;;1.37;0.93;;;;;;;11.76;100.00;98110.78;5079687;28;20238;-75
2020/12/22 00:35:38;;;;;;;4.50;1.10;;;;;;;11.73;100.00;98116.56;5091581;28;20204;-76
2020/12/22 00:38:05;;;;;;;1.00;0.90;;;;;;;11.82;100.00;98112.66;5088145;28;20199;-75
2020/12/22 00:40:32;;;;;;;1.00;0.90;;;;;;;11.80;100.00;98114.69;5090908;28;20563;-76
2020/12/22 00:43:00;;;;;;;1.80;0.90;;;;;;;11.67;100.00;98112.03;5080518;28;20223;-76
2020/12/22 00:45:27;;;;;;;1.27;1.10;;;;;;;11.69;100.00;98109.97;5086585;28;20193;-76
2020/12/22 00:47:55;;;;;;;1.27;0.90;;;;;;;11.68;100.00;98113.66;5078392;28;20213;-76
2020/12/22 00:50:22;;;;;;;0.97;0.83;;;;;;;11.75;100.00;98121.69;5086932;28;20204;-77
2020/12/22 00:52:49;;;;;;;1.47;1.20;;;;;;;11.77;100.00;98118.59;5075284;28;20229;-74
2020/12/22 00:55:16;;;;;;;1.40;0.80;;;;;;;11.85;100.00;98128.25;5075246;28;20208;-74
2020/12/22 00:57:42;;;;;;;1.43;0.90;;;;;;;11.63;100.00;98128.66;5074533;28;20689;-74
2020/12/22 01:00:13;;;;;;;1.00;0.90;;;;;;;11.88;100.00;98136.69;5074715;28;20266;-74
2020/12/22 01:02:39;;;;;;;1.00;0.80;;;;;;;12.00;100.00;98142.25;5052765;28;20222;-74
2020/12/22 01:05:07;;;;;;;1.03;0.80;;;;;;;12.02;100.00;98152.75;5065502;28;20212;-75
2020/12/22 01:07:34;;;;;;;1.07;0.97;;;;;;;12.10;100.00;98150.69;5087037;28;20230;-73
2020/12/22 01:10:01;;;;;;;1.13;0.80;;;;;;;11.96;100.00;98138.34;5078506;28;20213;-74
2020/12/22 01:12:28;;;;;;;0.80;0.80;;;;;;;12.15;100.00;98153.56;5091321;28;20228;-74
2020/12/22 01:14:55;;;;;;;0.70;0.70;;;;;;;11.98;100.00;98147.81;5075536;28;20689;-75
2020/12/22 01:17:22;;;;;;;0.90;0.70;;;;;;;12.08;100.00;98147.41;5084325;28;20199;-75
2020/12/22 01:19:49;;;;;;;1.67;0.70;;;;;;;12.22;100.00;98150.88;5092710;28;20675;-75
2020/12/22 01:22:17;;;;;;;1.03;0.73;;;;;;;12.21;100.00;98143.91;5088285;28;20603;-74
2020/12/22 01:24:43;;;;;;;0.80;0.80;;;;;;;11.93;100.00;98139.56;5082851;28;20215;-75
2020/12/22 01:27:10;;;;;;;2.30;0.80;;;;;;;12.07;100.00;98138.53;5082638;28;20653;-74
2020/12/22 01:29:37;;;;;;;1.03;0.80;;;;;;;12.01;100.00;98151.13;5087410;28;20201;-75
2020/12/22 01:32:04;;;;;;;0.93;0.70;;;;;;;12.08;100.00;98150.09;5078601;28;20208;-74
2020/12/22 01:34:30;;;;;;;0.97;0.87;;;;;;;12.18;100.00;98143.25;5085661;28;20197;-74
2020/12/22 01:36:57;;;;;;;1.47;0.70;;;;;;;12.03;100.00;98139.97;5085902;28;20199;-75
2020/12/22 01:39:25;;;;;;;1.37;0.67;;;;;;;12.08;100.00;98140.19;5085874;28;20207;-75
2020/12/22 01:41:52;;;;;;;1.03;0.70;;;;;;;11.83;100.00;98149.06;5077571;28;20284;-74
2020/12/22 01:44:19;;;;;;;1.03;0.70;;;;;;;12.02;100.00;98144.72;5085988;28;20233;-74
2020/12/22 01:46:48;;;;;;;0.60;0.60;;;;;;;12.00;100.00;98133.44;5075684;28;20270;-75
2020/12/22 01:49:18;;;;;;;0.70;0.53;;;;;;;11.96;100.00;98138.34;5094260;28;20200;-74
2020/12/22 01:51:47;;;;;;;0.70;0.70;;;;;;;11.87;100.00;98146.78;5088101;28;20228;-75
2020/12/22 01:54:15;;;;;;;0.50;0.50;;;;;;;11.92;100.00;98153.19;5084308;28;20630;-75
2020/12/22 01:56:43;;;;;;;0.73;0.70;;;;;;;11.89;100.00;98145.56;5083510;28;20206;-75
2020/12/22 01:59:10;;;;;;;0.70;0.50;;;;;;;11.80;100.00;98138.75;5086642;28;20197;-74
2020/12/22 02:01:37;;;;;;;0.63;0.50;;;;;;;11.72;100.00;98140.81;5082553;28;20296;-75
2020/12/22 02:04:05;;;;;;;0.83;0.60;;;;;;;11.77;100.00;98145.34;5091661;28;20228;-74
2020/12/22 02:06:33;;;;;;;1.20;0.40;;;;;;;11.81;100.00;98144.94;5081717;28;20748;-74
2020/12/22 02:09:00;;;;;;;0.50;0.50;;;;;;;11.73;100.00;98143.28;5091583;28;20679;-74
2020/12/22 02:11:27;;;;;;;0.50;0.40;;;;;;;11.70;100.00;98154.38;5086688;28;20212;-74
2020/12/22 02:13:57;;;;;;;1.07;0.40;;;;;;;11.77;100.00;98137.31;5077756;28;20236;-76
2020/12/22 02:16:24;;;;;;;0.30;0.30;;;;;;;11.81;100.00;98129.69;5070782;28;20205;-74
2020/12/22 02:18:52;;;;;;;1.20;0.37;;;;;;;11.88;100.00;98133.22;5090158;28;20216;-74
2020/12/22 02:21:20;;;;;;;1.10;0.40;;;;;;;11.98;100.00;98128.28;5083325;28;20197;-74
2020/12/22 02:23:48;;;;;;;0.40;0.40;;;;;;;12.07;100.00;98135.06;5091842;28;20224;-75
2020/12/22 02:26:15;;;;;;;0.43;0.43;;;;;;;12.12;100.00;98127.25;5090627;28;20227;-75
2020/12/22 02:28:42;;;;;;;0.23;0.23;;;;;;;12.23;100.00;98128.44;5077364;28;20287;-74
2020/12/22 02:31:09;;;;;;;0.20;0.20;;;;;;;12.12;100.00;98126.41;5084588;28;20682;-75
2020/12/22 02:33:35;;;;;;;0.60;0.30;;;;;;;12.22;100.00;98108.91;5084174;28;20226;-74
2020/12/22 02:36:02;;;;;;;0.40;0.40;;;;;;;12.22;100.00;98102.72;5088900;28;20198;-76
2020/12/22 02:38:30;;;;;;;0.50;0.30;;;;;;;12.40;100.00;98089.53;5083747;28;20197;-75
2020/12/22 02:40:57;;;;;;;0.37;0.30;;;;;;;12.45;100.00;98093.19;5072849;28;20716;-76
2020/12/22 02:43:23;;;;;;;0.20;0.20;;;;;;;12.54;100.00;98103.44;5080259;28;20286;-75
2020/12/22 02:45:50;;;;;;;0.40;0.30;;;;;;;12.63;100.00;98110.22;5075240;28;20207;-75
2020/12/22 02:48:17;;;;;;;0.20;0.20;;;;;;;12.63;100.00;98096.84;5086267;28;20191;-76
2020/12/22 02:50:44;;;;;;;0.20;0.20;;;;;;;12.64;100.00;98103.84;5082776;28;20205;-75
2020/12/22 02:53:11;;;;;;;0.30;0.30;;;;;;;12.59;100.00;98087.59;5084818;28;20232;-76
2020/12/22 02:55:39;;;;;;;0.37;0.23;;;;;;;12.68;100.00;98082.84;5092038;28;20203;-75
2020/12/22 02:58:05;;;;;;;0.30;0.30;;;;;;;12.67;100.00;98081.16;5077878;28;20220;-75
2020/12/22 03:00:32;;;;;;;0.90;0.20;;;;;;;12.70;100.00;98075.41;5081344;28;20197;-76
2020/12/22 03:02:59;;;;;;;0.20;0.20;;;;;;;12.67;100.00;98067.78;5084715;28;20755;-75
2020/12/22 03:05:26;;;;;;;0.20;0.20;;;;;;;12.63;100.00;98079.97;5092635;28;20193;-75
2020/12/22 03:07:53;;;;;;;0.30;0.30;;;;;;;12.61;100.00;98075.88;5082777;28;20199;-75
2020/12/22 03:10:20;;;;;;;0.73;0.40;;;;;;;12.67;100.00;98085.72;5085578;28;20196;-74
2020/12/22 03:12:48;;;;;;;0.83;0.30;;;;;;;12.64;100.00;98074.38;5078387;28;20580;-76
2020/12/22 03:15:15;;;;;;;0.27;0.27;;;;;;;12.77;100.00;98080.72;5076762;28;20592;-75
2020/12/22 03:17:42;;;;;;;0.23;0.23;;;;;;;12.86;100.00;98077.59;5084168;28;20198;-75
2020/12/22 03:20:10;;;;;;;1.00;0.20;;;;;;;12.73;100.00;98074.16;5085486;28;20204;-74
2020/12/22 03:22:37;;;;;;;0.37;0.30;;;;;;;12.72;100.00;98084.03;5074416;28;20217;-74
2020/12/22 03:25:05;;;;;;;0.57;0.30;;;;;;;12.64;100.00;98090.44;5072112;28;20213;-76
2020/12/22 03:27:31;;;;;;;0.20;0.20;;;;;;;12.82;100.00;98087.06;5074426;28;20228;-75
2020/12/22 03:29:59;;;;;;;0.30;0.30;;;;;;;12.87;100.00;98086.47;5075890;28;20204;-75
2020/12/22 03:32:26;;;;;;;0.73;0.20;;;;;;;12.91;100.00;98071.63;5091771;28;20221;-76
2020/12/22 03:34:54;;;;;;;1.03;0.27;;;;;;;12.82;100.00;98081.72;5075507;28;20557;-75
2020/12/22 03:37:21;;;;;;;0.20;0.20;;;;;;;12.87;100.00;98065.03;5085236;28;20729;-75
2020/12/22 03:39:49;;;;;;;0.37;0.20;;;;;;;12.71;100.00;98063.66;5079504;28;20199;-74
2020/12/22 03:42:16;;;;;;;0.33;0.27;;;;;;;12.76;100.00;98063.84;5070620;28;20205;-75
2020/12/22 03:44:43;;;;;;;0.20;0.20;;;;;;;12.81;100.00;98060.53;5074058;28;20205;-75
2020/12/22 03:47:11;;;;;;;0.20;0.20;;;;;;;12.86;100.00;98063.41;5083393;28;20217;-75
2020/12/22 03:49:37;;;;;;;0.20;0.20;;;;;;;12.90;100.00;98070.78;5079199;28;20198;-75
2020/12/22 03:52:06;;;;;;;0.37;0.30;;;;;;;12.93;100.00;98091.78;5087045;28;20631;-75
2020/12/22 03:54:33;;;;;;;1.03;0.30;;;;;;;12.92;100.00;98092.00;5082853;28;20203;-75
2020/12/22 03:57:00;;;;;;;0.20;0.20;;;;;;;12.67;100.00;98093.75;5071432;28;20207;-75
2020/12/22 03:59:27;;;;;;;0.20;0.20;;;;;;;12.84;100.00;98095.75;5072245;28;20208;-75
2020/12/22 04:01:54;;;;;;;0.20;0.20;;;;;;;12.68;100.00;98099.69;5086483;28;20224;-75
2020/12/22 04:04:22;;;;;;;2.47;0.30;;;;;;;12.54;100.00;98087.38;5086529;28;20752;-75
2020/12/22 04:06:50;;;;;;;0.33;0.30;;;;;;;12.66;100.00;98090.25;5082188;28;20600;-76
2020/12/22 04:09:18;;;;;;;0.20;0.20;;;;;;;12.57;100.00;98089.66;5082377;28;20223;-76
2020/12/22 04:11:45;;;;;;;0.20;0.20;;;;;;;12.64;100.00;98105.72;5077854;28;20257;-75
2020/12/22 04:14:12;;;;;;;0.30;0.30;;;;;;;12.78;100.00;98102.75;5077408;28;20231;-75
2020/12/22 04:16:39;;;;;;;0.30;0.30;;;;;;;12.88;100.00;98104.16;5074980;28;20205;-75
2020/12/22 04:19:07;;;;;;;0.30;0.30;;;;;;;12.88;100.00;98112.19;5083156;28;20201;-75
2020/12/22 04:21:35;;;;;;;0.30;0.30;;;;;;;13.00;100.00;98113.19;5082423;28;20665;-76
2020/12/22 04:24:02;;;;;;;0.20;0.20;;;;;;;12.88;100.00;98116.53;5076299;28;20573;-75
2020/12/22 04:26:29;;;;;;;0.20;0.20;;;;;;;13.02;100.00;98113.81;5075116;28;20186;-74
2020/12/22 04:28:56;;;;;;;0.20;0.20;;;;;;;12.99;100.00;98112.41;5078275;28;20201;-74
2020/12/22 04:31:23;;;;;;;0.20;0.20;;;;;;;12.85;100.00;98108.09;5079804;28;20201;-75
2020/12/22 04:33:51;;;;;;;0.40;0.40;;;;;;;12.89;100.00;98110.13;5073611;28;20657;-76
2020/12/22 04:36:18;;;;;;;1.70;0.30;;;;;;;12.87;100.00;98103.34;5082800;28;20255;-76
2020/12/22 04:38:46;;;;;;;0.20;0.20;;;;;;;13.07;100.00;98103.28;5093929;28;20254;-76
2020/12/22 04:41:15;;;;;;;0.20;0.20;;;;;;;12.98;100.00;98105.41;5081282;28;20204;-76
2020/12/22 04:43:42;;;;;;;0.30;0.27;;;;;;;12.98;100.00;98109.91;5077192;28;20225;-75
2020/12/22 04:46:09;;;;;;;1.40;0.37;;;;;;;13.09;100.00;98109.25;5093745;28;20333;-76
2020/12/22 04:48:37;;;;;;;0.57;0.30;;;;;;;13.10;100.00;98118.91;5077408;28;20201;-75
2020/12/22 04:51:06;;;;;;;0.30;0.30;;;;;;;13.01;100.00;98112.19;5088247;28;20230;-77
2020/12/22 04:53:33;;;;;;;0.20;0.20;;;;;;;13.20;100.00;98113.91;5091647;28;20221;-76
2020/12/22 04:56:02;;;;;;;0.20;0.20;;;;;;;13.18;100.00;98114.13;5086656;28;20192;-76
2020/12/22 04:58:29;;;;;;;1.40;0.30;;;;;;;13.22;100.00;98098.47;5095340;28;20199;-75
2020/12/22 05:00:58;;;;;;;0.23;0.23;;;;;;;13.28;100.00;98092.25;5086507;28;20197;-75
2020/12/22 05:03:26;;;;;;;0.30;0.30;;;;;;;13.31;100.00;98097.16;5074690;28;20221;-75
2020/12/22 05:05:54;;;;;;;0.20;0.20;;;;;;;13.18;100.00;98098.06;5091216;28;20200;-75
2020/12/22 05:08:21;;;;;;;0.20;0.20;;;;;;;13.13;100.00;98102.44;5083658;28;20566;-76
2020/12/22 05:10:52;;;;;;;0.20;0.20;;;;;;;13.35;100.00;98095.69;5089399;28;20208;-75
2020/12/22 05:13:21;;;;;;;0.20;0.20;;;;;;;13.32;100.00;98096.94;5090435;28;20231;-75
2020/12/22 05:15:49;;;;;;;0.20;0.20;;;;;;;13.23;100.00;98103.59;5075698;28;20212;-75
2020/12/22 05:18:16;;;;;;;0.30;0.20;;;;;;;13.10;100.00;98108.19;5083656;28;20203;-75
2020/12/22 05:20:44;;;;;;;0.20;0.20;;;;;;;13.13;100.00;98110.47;5084777;28;20214;-74
2020/12/22 05:23:13;;;;;;;0.20;0.20;;;;;;;13.02;100.00;98119.97;5090030;28;20694;-75
2020/12/22 05:25:41;;;;;;;0.20;0.20;;;;;;;13.04;100.00;98128.66;5094153;28;20617;-74
2020/12/22 05:28:08;;;;;;;0.30;0.30;;;;;;;13.24;100.00;98134.75;5089432;28;20210;-74
2020/12/22 05:30:38;;;;;;;0.20;0.20;;;;;;;13.32;100.00;98123.75;5078717;28;20855;-74
2020/12/22 05:33:05;;;;;;;0.20;0.20;;;;;;;13.37;100.00;98120.44;5078143;28;20257;-74
2020/12/22 05:35:37;;;;;;;0.20;0.20;;;;;;;13.33;100.00;98111.97;5086076;28;20195;-74
2020/12/22 05:38:05;;;;;;;0.20;0.20;;;;;;;13.23;100.00;98106.25;5086846;28;20197;-75
2020/12/22 05:40:32;;;;;;;1.07;0.20;;;;;;;13.28;100.00;98111.00;5077314;28;20209;-76
2020/12/22 05:42:59;;;;;;;0.20;0.20;;;;;;;13.46;100.00;98103.88;5082277;28;20213;-75
2020/12/22 05:45:31;;;;;;;0.20;0.20;;;;;;;13.25;100.00;98100.69;5082397;28;20193;-75
2020/12/22 05:47:58;;;;;;;0.20;0.20;;;;;;;13.36;100.00;98102.69;5077586;28;20593;-75
2020/12/22 05:50:25;;;;;;;0.20;0.20;;;;;;;13.40;100.00;98106.59;5084302;28;20207;-75
2020/12/22 05:52:54;;;;;;;0.17;0.17;;;;;;;13.53;100.00;98126.09;5090022;28;20311;-76
2020/12/22 05:55:29;;;;;;;0.13;0.13;;;;;;;13.58;100.00;98126.25;5081792;28;20590;-75
2020/12/22 05:58:09;;;;;;;2.10;0.20;;;;;;;13.57;100.00;98121.94;5077207;28;20197;-75
2020/12/22 06:00:36;;;;;;;0.20;0.20;;;;;;;13.60;100.00;98129.56;5076556;28;20211;-75
2020/12/22 06:03:07;;;;;;;0.20;0.20;;;;;;;13.60;100.00;98126.88;5085284;28;20256;-75
2020/12/22 06:05:39;;;;;;;0.53;0.23;;;;;;;13.67;100.00;98132.19;5093659;28;20197;-75
2020/12/22 06:08:08;;;;;;;1.13;0.30;;;;;;;13.64;100.00;98129.94;5078710;28;20198;-76
2020/12/22 06:10:36;;;;;;;1.13;0.30;;;;;;;13.72;100.00;98138.53;5085098;28;20199;-76
2020/12/22 06:13:04;;;;;;;0.20;0.20;;;;;;;13.85;100.00;98140.31;5084977;28;20224;-76
2020/12/22 06:15:32;;;;;;;1.40;0.27;;;;;;;13.74;100.00;98130.28;5068480;28;20212;-76
2020/12/22 06:17:59;;;;;;;0.33;0.30;;;;;;;13.76;100.00;98134.38;5086024;28;20659;-76
2020/12/22 06:20:28;;;;;;;0.20;0.20;;;;;;;13.63;100.00;98141.72;5089455;28;20776;-76
2020/12/22 06:23:01;;;;;;;0.20;0.20;;;;;;;13.66;100.00;98133.22;5081461;28;20227;-76
2020/12/22 06:25:28;;;;;;;0.20;0.20;;;;;;;13.69;100.00;98146.19;5084707;28;20680;-76
2020/12/22 06:27:55;;;;;;;0.20;0.20;;;;;;;13.80;100.00;98145.50;5091604;28;20201;-77
2020/12/22 06:30:32;;;;;;;0.50;0.27;;;;;;;13.78;100.00;98139.53;5068755;28;20255;-76
2020/12/22 06:33:17;;;;;;;0.43;0.40;;;;;;;13.84;100.00;98139.50;5073429;28;20229;-76
2020/12/22 06:36:00;;;;;;;0.23;0.23;;;;;;;13.77;100.00;98137.91;5076690;28;20205;-76
2020/12/22 06:38:46;;;;;;;0.67;0.20;;;;;;;13.84;100.00;98136.81;5075318;28;20205;-76
2020/12/22 06:41:23;;;;;;;0.27;0.27;;;;;;;13.81;100.00;98141.78;5081243;28;20200;-77
2020/12/22 06:43:50;;;;;;;0.23;0.20;;;;;;;13.79;100.00;98130.44;5084027;28;20242;-77
2020/12/22 06:46:37;;;;;;;1.13;0.30;;;;;;;13.74;100.00;98133.78;5086457;28;20196;-76
2020/12/22 06:49:06;;;;;;;0.60;0.40;;;;;;;13.82;100.00;98133.50;5077380;28;20305;-75
2020/12/22 06:51:34;;;;;;;0.30;0.30;;;;;;;13.93;100.00;98134.69;5076758;28;20201;-80
2020/12/22 06:54:01;;;;;;;0.53;0.30;;;;;;;13.94;100.00;98136.31;5084261;28;20227;-75
2020/12/22 06:56:42;;;;;;;1.47;0.33;;;;;;;13.87;100.00;98143.59;5085733;28;20200;-75
2020/12/22 06:59:10;;;;;;;0.30;0.30;;;;;;;13.92;100.00;98143.75;5074948;28;20203;-74
2020/12/22 07:01:37;;;;;;;0.50;0.30;;;;;;;13.97;100.00;98154.66;5074368;28;20551;-75
2020/12/22 07:04:18;;;;;;;0.20;0.20;;;;;;;14.01;100.00;98145.13;5087093;28;20219;-75
2020/12/22 07:06:57;;;;;;;0.97;0.30;;;;;;;14.07;100.00;98152.28;5078990;28;20201;-76
2020/12/22 07:09:26;;;;;;;0.47;0.20;;;;;;;14.13;100.00;98148.75;5080383;28;20275;-77
2020/12/22 07:11:57;;;;;;;0.20;0.20;;;;;;;14.17;100.00;98136.50;5077843;28;20206;-74
2020/12/22 07:14:25;;;;;;;0.30;0.30;;;;;;;13.93;100.00;98138.16;5072002;28;20585;-76
2020/12/22 07:16:56;;;;;;;0.27;0.27;;;;;;;14.07;100.00;98150.44;5071918;28;20296;-74
2020/12/22 07:19:28;;;;;;;0.20;0.20;;;;;;;14.10;100.00;98150.00;5073889;28;20229;-75
2020/12/22 07:21:56;;;;;;;0.20;0.20;;;;;;;14.23;100.00;98157.16;5084168;28;20607;-74
2020/12/22 07:24:24;;;;;;;0.20;0.20;;;;;;;14.22;100.00;98142.91;5084484;28;20305;-75
2020/12/22 07:26:50;;;;;;;0.20;0.20;;;;;;;14.24;100.00;98156.91;5072402;28;20235;-75
2020/12/22 07:29:17;;;;;;;0.20;0.20;;;;;;;14.41;100.00;98163.38;5077386;28;20203;-74
2020/12/22 07:31:45;;;;;;;0.73;0.30;;;;;;;14.24;100.00;98166.84;5072555;28;20205;-74
2020/12/22 07:34:12;;;;;;;0.20;0.20;;;;;;;14.25;100.00;98168.50;5090093;28;20311;-74
2020/12/22 07:36:40;;;;;;;0.20;0.20;;;;;;;14.49;100.00;98159.59;5079736;28;20190;-73
2020/12/22 07:39:28;;;;;;;0.40;0.30;;;;;;;14.39;100.00;98170.81;5077808;28;20256;-72
2020/12/22 07:41:55;;;;;;;0.20;0.20;;;;;;;14.38;100.00;98171.88;5073146;28;20212;-74
2020/12/22 07:44:23;;;;;;;0.20;0.20;;;;;;;14.49;100.00;98170.34;5068026;28;20216;-73
2020/12/22 07:46:53;;;;;;;0.43;0.20;;;;;;;14.51;100.00;98174.44;5071041;28;20205;-73
2020/12/22 07:49:20;;;;;;;0.20;0.20;;;;;;;14.64;100.00;98168.94;5079428;28;20246;-72
2020/12/22 07:51:47;;;;;;;0.67;0.47;;;;;;;14.48;100.00;98171.38;5079062;28;20204;-73
2020/12/22 07:54:16;;;;;;;0.27;0.27;;;;;;;14.53;100.00;98172.34;5067382;28;20232;-76
2020/12/22 07:56:45;;;;;;;0.37;0.30;;;;;;;14.51;100.00;98163.72;5087016;28;20220;-75
2020/12/22 07:59:12;;;;;;;0.27;0.27;;;;;;;14.49;100.00;98178.41;5079264;28;20680;-76
2020/12/22 08:01:40;;;;;;;0.70;0.30;;;;;;;14.68;100.00;98178.19;5076554;28;20659;-80
2020/12/22 08:04:17;;;;;;;0.50;0.30;;;;;;;14.65;100.00;98173.25;5084003;28;20218;-79
2020/12/22 08:06:54;;;;;;;0.43;0.23;;;;;;;14.65;100.00;98181.31;5076926;28;20638;-77
2020/12/22 08:09:27;;;;;;;0.20;0.20;;;;;;;14.69;100.00;98182.50;5078045;28;20688;-79
2020/12/22 08:11:57;;;;;;;0.20;0.20;;;;;;;14.54;100.00;98173.19;5082664;28;20633;-79
2020/12/22 08:14:25;;;;;;;0.60;0.20;;;;;;;14.62;100.00;98189.00;5085133;28;20228;-83
2020/12/22 08:16:53;;;;;;;0.33;0.33;;;;;;;14.72;100.00;98184.75;5084044;28;20275;-77
2020/12/22 08:19:20;;;;;;;0.20;0.20;;;;;;;14.76;100.00;98194.03;5091791;28;20201;-78
2020/12/22 08:21:48;;;;;;;0.20;0.20;;;;;;;14.76;100.00;98191.34;5095218;28;20208;-78
2020/12/22 08:24:16;;;;;;;0.40;0.40;;;;;;;14.84;100.00;98196.41;5088889;28;20217;-77
2020/12/22 08:26:45;;;;;;;0.20;0.20;;;;;;;14.83;100.00;98204.69;5087717;28;20205;-80
2020/12/22 08:29:15;;;;;;;0.30;0.30;;;;;;;14.76;100.00;98204.78;5087176;28;20208;-79
2020/12/22 08:31:43;;;;;;;0.20;0.20;;;;;;;14.91;100.00;98201.72;5080153;28;20914;-76
2020/12/22 08:34:11;;;;;;;0.30;0.30;;;;;;;14.63;100.00;98196.03;5080316;28;20707;-80
2020/12/22 08:36:38;;;;;;;0.27;0.27;;;;;;;14.94;100.00;98194.03;5081196;28;20691;-82
2020/12/22 08:39:19;;;;;;;0.30;0.30;;;;;;;14.95;100.00;98194.84;5084135;28;20717;-77
2020/12/22 08:41:48;;;;;;;0.20;0.20;;;;;;;14.69;100.00;98205.88;5087444;28;20662;-82
2020/12/22 08:44:16;;;;;;;0.20;0.20;;;;;;;14.70;100.00;98211.00;5084019;28;20231;-80
2020/12/22 08:46:44;;;;;;;0.20;0.20;;;;;;;14.80;100.00;98218.59;5085190;28;20255;-77
2020/12/22 08:49:13;;;;;;;0.30;0.27;;;;;;;14.89;100.00;98219.94;5080918;28;20622;-76
2020/12/22 08:51:40;;;;;;;0.60;0.33;;;;;;;14.68;100.00;98223.03;5078884;28;20197;-75
2020/12/22 08:54:07;;;;;;;0.23;0.23;;;;;;;14.79;100.00;98217.75;5084962;28;20229;-76
2020/12/22 08:56:35;;;;;;;0.20;0.20;;;;;;;14.87;100.00;98222.84;5084580;28;20280;-77
2020/12/22 08:59:07;;;;;;;1.60;0.40;;;;;;;15.10;100.00;98228.38;5082496;28;20212;-84
2020/12/22 09:01:41;;;;;;;0.33;0.30;;;;;;;15.03;100.00;98241.06;5086433;28;20206;-80
2020/12/22 09:04:09;;;;;;;1.40;0.40;;;;;;;15.01;100.00;98234.28;5082425;28;20217;-76
2020/12/22 09:06:38;;;;;;;0.30;0.30;;;;;;;14.82;100.00;98246.88;5100283;28;20200;-80
2020/12/22 09:09:06;;;;;;;0.30;0.30;;;;;;;14.74;100.00;98238.28;5083213;28;20211;-77
2020/12/22 09:11:33;;;;;;;0.27;0.27;;;;;;;14.79;100.00;98241.13;5085869;28;20227;-80
2020/12/22 09:14:02;;;;;;;2.47;0.30;;;;;;;14.86;100.00;98244.56;5085502;28;20219;-77
2020/12/22 09:16:50;;;;;;;0.23;0.23;;;;;;;14.64;100.00;98246.81;5085517;28;20204;-83
2020/12/22 09:19:19;;;;;;;0.50;0.50;;;;;;;14.77;100.00;98238.66;5081025;28;20204;-82
2020/12/22 09:21:46;;;;;;;0.33;0.30;;;;;;;14.97;100.00;98246.50;5081989;28;20224;-79
2020/12/22 09:24:17;;;;;;;0.37;0.37;;;;;;;14.89;100.00;98238.75;5090579;28;20220;-77
2020/12/22 09:27:01;;;;;;;0.30;0.30;;;;;;;14.90;100.00;98245.75;5081247;28;20580;-73
2020/12/22 09:29:28;;;;;;;0.63;0.30;;;;;;;14.90;100.00;98240.38;5080835;28;20181;-78
2020/12/22 09:31:57;;;;;;;0.30;0.30;;;;;;;14.68;100.00;98244.50;5090971;28;20200;-77
2020/12/22 09:34:25;;;;;;;0.20;0.20;;;;;;;14.72;100.00;98235.81;5095880;28;20264;-76
2020/12/22 09:36:53;;;;;;;1.17;0.87;;;;;;;14.73;100.00;98232.06;5088148;28;20207;-77
2020/12/22 09:39:20;;;;;;;0.33;0.30;;;;;;;14.55;100.00;98229.38;5087905;28;20196;-76
2020/12/22 09:41:47;;;;;;;0.30;0.30;;;;;;;14.68;100.00;98249.88;5074443;28;20211;-77
2020/12/22 09:44:15;;;;;;;1.53;0.90;;;;;;;14.65;100.00;98236.91;5080616;28;20649;-78
2020/12/22 09:46:42;;;;;;;1.40;0.40;;;;;;;14.71;100.00;98239.53;5093989;28;20339;-77
2020/12/22 09:49:10;;;;;;;1.40;0.40;;;;;;;14.70;100.00;98247.81;5092353;28;20673;-77
2020/12/22 09:51:37;;;;;;;1.70;0.40;;;;;;;14.84;100.00;98246.66;5092480;28;20290;-77
2020/12/22 09:54:04;;;;;;;0.30;0.30;;;;;;;14.81;100.00;98249.78;5091558;28;20589;-77
2020/12/22 09:56:31;;;;;;;0.63;0.30;;;;;;;15.00;100.00;98251.44;5074466;28;20202;-78
2020/12/22 09:58:58;;;;;;;0.60;0.30;;;;;;;14.97;100.00;98252.72;5076912;28;20192;-79
2020/12/22 10:01:26;;;;;;;0.40;0.40;;;;;;;15.09;100.00;98236.69;5098632;28;20202;-78
2020/12/22 10:03:54;;;;;;;1.30;0.60;;;;;;;15.21;100.00;98234.88;5075377;28;20219;-78
2020/12/22 10:06:23;;;;;;;1.90;0.40;;;;;;;15.33;100.00;98233.94;5076891;28;20246;-78
2020/12/22 10:08:50;;;;;;;0.40;0.40;;;;;;;15.26;100.00;98243.09;5080706;28;20220;-78
2020/12/22 10:11:18;;;;;;;0.30;0.30;;;;;;;15.14;100.00;98236.81;5077476;28;20193;-78
2020/12/22 10:13:45;;;;;;;0.43;0.30;;;;;;;15.29;100.00;98238.06;5094205;28;20226;-77
2020/12/22 10:16:13;;;;;;;1.70;0.30;;;;;;;15.21;100.00;98237.56;5087300;28;20260;-78
2020/12/22 10:18:40;;;;;;;0.30;0.30;;;;;;;15.31;100.00;98241.38;5078429;28;20202;-77
2020/12/22 10:21:09;;;;;;;0.50;0.50;;;;;;;15.13;100.00;98241.38;5090222;28;20245;-77
2020/12/22 10:23:37;;;;;;;0.20;0.20;;;;;;;15.55;100.00;98240.47;5075140;28;20216;-80
2020/12/22 10:26:06;;;;;;;2.00;0.90;;;;;;;15.23;100.00;98238.16;5091387;28;20208;-78
2020/12/22 10:28:34;;;;;;;0.37;0.37;;;;;;;15.56;100.00;98236.72;5083129;28;20245;-78
2020/12/22 10:31:01;;;;;;;0.47;0.40;;;;;;;15.40;100.00;98242.72;5078926;28;20198;-78
2020/12/22 10:33:28;;;;;;;0.57;0.53;;;;;;;15.70;100.00;98240.09;5086411;28;20695;-78
2020/12/22 10:35:55;;;;;;;0.93;0.60;;;;;;;15.72;100.00;98236.13;5085745;28;20193;-78
2020/12/22 10:38:22;;;;;;;0.33;0.30;;;;;;;15.76;100.00;98247.25;5079178;28;20224;-78
2020/12/22 10:40:50;;;;;;;0.40;0.40;;;;;;;15.75;100.00;98248.31;5074402;28;20205;-79
2020/12/22 10:43:17;;;;;;;2.17;0.60;;;;;;;15.85;100.00;98240.50;5074906;28;20217;-78
2020/12/22 10:45:44;;;;;;;0.37;0.37;;;;;;;15.80;100.00;98257.31;5078911;28;20209;-78
2020/12/22 10:48:11;;;;;;;0.50;0.30;;;;;;;15.80;100.00;98248.44;5083292;28;20213;-78
2020/12/22 10:50:39;;;;;;;0.30;0.30;;;;;;;15.96;100.00;98253.19;5083209;28;20283;-78
2020/12/22 10:53:07;;;;;;;1.00;0.43;;;;;;;15.71;100.00;98247.91;5075204;28;20233;-78
2020/12/22 10:55:34;;;;;;;0.40;0.40;;;;;;;15.77;100.00;98246.19;5074878;28;20197;-77
2020/12/22 10:58:02;;;;;;;1.50;0.70;;;;;;;15.71;100.00;98239.84;5095190;28;20676;-77
2020/12/22 11:00:28;;;;;;;0.30;0.30;;;;;;;15.83;100.00;98247.97;5085816;28;20652;-79
2020/12/22 11:02:58;;;;;;;0.30;0.30;;;;;;;15.66;100.00;98252.34;5078488;28;20227;-77
2020/12/22 11:08:10;;;;;;;0.30;0.30;;;;;;;16.00;100.00;98257.88;5083910;28;20640;-79
2020/12/22 11:10:37;;;;;;;0.20;0.20;;;;;;;15.89;100.00;98252.44;5074851;28;20217;-79
2020/12/22 11:13:05;;;;;;;1.30;0.30;;;;;;;15.85;100.00;98251.28;5075640;28;20940;-79
2020/12/22 11:15:32;;;;;;;0.30;0.30;;;;;;;15.75;100.00;98251.78;5074228;28;20572;-79
2020/12/22 11:17:59;;;;;;;0.27;0.27;;;;;;;15.89;100.00;98264.03;5074361;28;20292;-79
2020/12/22 11:20:26;;;;;;;0.40;0.33;;;;;;;15.79;100.00;98257.53;5074297;28;20207;-78
2020/12/22 11:22:53;;;;;;;0.33;0.33;;;;;;;15.87;100.00;98258.06;5084363;28;20660;-88
2020/12/22 11:25:19;;;;;;;0.67;0.40;;;;;;;15.83;100.00;98272.19;5076132;28;20202;-81
2020/12/22 11:27:46;;;;;;;0.63;0.40;;;;;;;15.88;100.00;98265.09;5078662;28;20205;-88
2020/12/22 11:30:14;;;;;;;0.30;0.30;;;;;;;15.98;100.00;98248.38;5084565;28;20231;-82
2020/12/22 11:32:41;;;;;;;0.40;0.40;;;;;;;15.97;100.00;98252.13;5086084;28;20232;-86